Time;durP1;ratioP1;P1;durP2;ratioP2;P2;SDS_P1;SDS_P2;PMS_P1;PMS_P2;Temp;Humidity;BMP_temperature;BMP_pressure;BME280_temperature;BME280_humidity;BME280_pressure;Samples;Min_cycle;Max_cycle;Signal;HPM_P1;HPM_P2
2021/05/21 00:00:33;;;;;;;;;;;;;;;8.61;100.00;92856.47;5070563;28;19970;-82
2021/05/21 00:03:01;;;;;;;;;;;;;;;8.53;100.00;92858.25;5069901;28;20439;-82
2021/05/21 00:05:27;;;;;;;;;;;;;;;8.66;100.00;92851.50;5069640;28;20426;-84
2021/05/21 00:07:54;;;;;;;;;;;;;;;8.77;100.00;92848.28;5070638;28;19932;-82
2021/05/21 00:10:20;;;;;;;;;;;;;;;8.86;100.00;92850.59;5069829;28;19924;-84
2021/05/21 00:12:46;;;;;;;;;;;;;;;8.84;100.00;92844.91;5069138;28;19928;-84
2021/05/21 00:15:13;;;;;;;;;;;;;;;8.73;100.00;92844.56;5069129;28;20038;-83
2021/05/21 00:17:39;;;;;;;;;;;;;;;8.75;100.00;92839.25;5069289;28;19970;-83
2021/05/21 00:20:05;;;;;;;;;;;;;;;8.90;100.00;92847.41;5069393;28;19928;-83
2021/05/21 00:22:32;;;;;;;;;;;;;;;8.76;100.00;92840.81;5069311;28;19924;-83
2021/05/21 00:24:58;;;;;;;;;;;;;;;8.68;100.00;92839.28;5069302;28;20395;-83
2021/05/21 00:27:25;;;;;;;;;;;;;;;8.81;100.00;92846.09;5069261;28;20286;-84
2021/05/21 00:29:51;;;;;;;;;;;;;;;8.97;100.00;92847.34;5069318;28;20387;-83
2021/05/21 00:32:17;;;;;;;;;;;;;;;9.03;100.00;92848.31;5069527;28;19928;-83
2021/05/21 00:34:43;;;;;;;;;;;;;;;8.92;100.00;92844.63;5069223;28;19924;-83
2021/05/21 00:37:09;;;;;;;;;;;;;;;8.62;100.00;92851.13;5068732;28;20391;-84
2021/05/21 00:39:35;;;;;;;;;;;;;;;8.55;100.00;92852.94;5069120;28;19929;-84
2021/05/21 00:42:02;;;;;;;;;;;;;;;8.48;100.00;92857.28;5068897;28;19925;-82
2021/05/21 00:44:28;;;;;;;;;;;;;;;8.50;100.00;92856.09;5069111;28;20314;-82
2021/05/21 00:46:54;;;;;;;;;;;;;;;8.63;100.00;92857.03;5068690;28;19932;-83
2021/05/21 00:49:20;;;;;;;;;;;;;;;8.52;100.00;92851.56;5066325;28;19925;-81
2021/05/21 00:51:46;;;;;;;;;;;;;;;8.75;100.00;92860.50;5069227;28;20668;-82
2021/05/21 00:54:14;;;;;;;;;;;;;;;8.81;100.00;92853.78;5069133;28;19951;-82
2021/05/21 00:56:40;;;;;;;;;;;;;;;8.76;100.00;92863.84;5066228;28;19935;-82
2021/05/21 00:59:07;;;;;;;;;;;;;;;8.37;100.00;92863.81;5069032;28;19935;-83
2021/05/21 01:01:33;;;;;;;;;;;;;;;8.37;100.00;92869.72;5069014;28;20300;-83
2021/05/21 01:03:59;;;;;;;;;;;;;;;8.15;100.00;92871.81;5066477;28;19924;-82
2021/05/21 01:06:25;;;;;;;;;;;;;;;8.17;100.00;92877.50;5069081;28;20579;-82
2021/05/21 01:08:51;;;;;;;;;;;;;;;7.97;100.00;92878.34;5068763;28;20414;-82
2021/05/21 01:11:17;;;;;;;;;;;;;;;7.95;100.00;92872.66;5069367;28;19928;-83
2021/05/21 01:13:43;;;;;;;;;;;;;;;8.01;100.00;92871.06;5069009;28;19925;-82
2021/05/21 01:16:10;;;;;;;;;;;;;;;7.88;100.00;92877.00;5068639;28;19977;-82
2021/05/21 01:18:36;;;;;;;;;;;;;;;7.73;100.00;92879.78;5068859;28;20375;-82
2021/05/21 01:21:04;;;;;;;;;;;;;;;7.90;100.00;92877.56;5069083;28;19925;-80
2021/05/21 01:23:30;;;;;;;;;;;;;;;7.88;100.00;92884.69;5068801;28;19925;-79
2021/05/21 01:25:56;;;;;;;;;;;;;;;7.84;100.00;92891.97;5068601;28;19950;-80
2021/05/21 01:28:23;;;;;;;;;;;;;;;7.81;100.00;92892.34;5068890;28;20873;-80
2021/05/21 01:30:49;;;;;;;;;;;;;;;7.96;100.00;92897.22;5068704;28;19928;-79
2021/05/21 01:33:15;;;;;;;;;;;;;;;7.97;100.00;92893.69;5068508;28;19929;-79
2021/05/21 01:35:42;;;;;;;;;;;;;;;8.04;100.00;92900.56;5069348;28;19928;-79
2021/05/21 01:38:11;;;;;;;;;;;;;;;7.90;100.00;92900.59;5069071;28;19925;-80
2021/05/21 01:40:38;;;;;;;;;;;;;;;7.98;100.00;92909.81;5069026;28;20456;-80
2021/05/21 01:43:04;;;;;;;;;;;;;;;8.21;100.00;92904.25;5069008;28;20399;-79
2021/05/21 01:45:30;;;;;;;;;;;;;;;8.13;100.00;92909.59;5070809;28;19939;-82
2021/05/21 01:47:57;;;;;;;;;;;;;;;7.97;100.00;92909.03;5073335;28;19924;-81
2021/05/21 01:50:23;;;;;;;;;;;;;;;7.96;100.00;92917.69;5073267;28;20296;-81
2021/05/21 01:52:49;;;;;;;;;;;;;;;8.13;100.00;92912.13;5072498;28;19928;-82
2021/05/21 01:55:16;;;;;;;;;;;;;;;8.06;100.00;92912.16;5072292;28;19950;-82
2021/05/21 01:57:43;;;;;;;;;;;;;;;8.19;100.00;92913.88;5072591;28;19928;-82
2021/05/21 02:00:10;;;;;;;;;;;;;;;8.30;100.00;92912.50;5072078;28;20011;-82
2021/05/21 02:02:36;;;;;;;;;;;;;;;8.06;100.00;92919.81;5072544;28;20342;-81
2021/05/21 02:05:03;;;;;;;;;;;;;;;8.10;100.00;92913.31;5072551;28;19924;-82
2021/05/21 02:07:29;;;;;;;;;;;;;;;8.25;100.00;92918.19;5072172;28;19928;-82
2021/05/21 02:09:57;;;;;;;;;;;;;;;8.40;100.00;92920.53;5072749;28;19929;-81
2021/05/21 02:12:25;;;;;;;;;;;;;;;8.33;100.00;92917.19;5072472;28;19960;-81
2021/05/21 02:14:51;;;;;;;;;;;;;;;8.28;100.00;92924.69;5072629;28;19940;-82
2021/05/21 02:17:17;;;;;;;;;;;;;;;8.16;100.00;92911.75;5072334;28;19939;-83
2021/05/21 02:19:43;;;;;;;;;;;;;;;8.15;100.00;92908.41;5072144;28;19931;-83
2021/05/21 02:22:09;;;;;;;;;;;;;;;8.37;100.00;92908.13;5071757;28;20019;-80
2021/05/21 02:24:36;;;;;;;;;;;;;;;8.45;100.00;92904.56;5072134;28;20019;-79
2021/05/21 02:27:02;;;;;;;;;;;;;;;8.47;100.00;92912.03;5071770;28;19947;-82
2021/05/21 02:29:29;;;;;;;;;;;;;;;8.33;100.00;92911.31;5071573;28;19928;-82
2021/05/21 02:31:55;;;;;;;;;;;;;;;8.36;100.00;92908.31;5072003;28;19925;-84
2021/05/21 02:34:21;;;;;;;;;;;;;;;8.14;100.00;92913.69;5071899;28;19974;-82
2021/05/21 02:36:47;;;;;;;;;;;;;;;8.19;100.00;92913.13;5071517;28;19931;-83
2021/05/21 02:39:13;;;;;;;;;;;;;;;8.28;100.00;92912.69;5071799;28;19931;-81
2021/05/21 02:41:40;;;;;;;;;;;;;;;8.13;100.00;92907.81;5071716;28;19929;-83
2021/05/21 02:44:06;;;;;;;;;;;;;;;8.16;100.00;92909.19;5071415;28;19928;-81
2021/05/21 02:46:33;;;;;;;;;;;;;;;8.38;100.00;92917.38;5071337;28;19931;-84
2021/05/21 02:48:59;;;;;;;;;;;;;;;8.27;100.00;92920.56;5071666;28;19970;-85
2021/05/21 02:51:25;;;;;;;;;;;;;;;8.27;100.00;92912.88;5071688;28;20053;-81
2021/05/21 02:53:51;;;;;;;;;;;;;;;8.27;100.00;92913.69;5071247;28;19935;-82
2021/05/21 02:56:17;;;;;;;;;;;;;;;8.31;100.00;92916.63;5071529;28;19924;-81
2021/05/21 02:58:43;;;;;;;;;;;;;;;8.41;100.00;92918.75;5071107;28;19924;-81
2021/05/21 03:01:09;;;;;;;;;;;;;;;8.46;100.00;92925.81;5071295;28;20437;-81
2021/05/21 03:03:37;;;;;;;;;;;;;;;8.34;100.00;92926.44;5071073;28;20854;-81
2021/05/21 03:06:03;;;;;;;;;;;;;;;8.22;100.00;92930.59;5071018;28;19932;-82
2021/05/21 03:08:30;;;;;;;;;;;;;;;8.33;100.00;92929.22;5070976;28;19925;-81
2021/05/21 03:10:56;;;;;;;;;;;;;;;8.48;100.00;92927.16;5070964;28;20422;-81
2021/05/21 03:13:22;;;;;;;;;;;;;;;8.58;100.00;92924.22;5071242;28;19928;-82
2021/05/21 03:15:49;;;;;;;;;;;;;;;8.69;100.00;92927.91;5070980;28;19924;-81
2021/05/21 03:18:17;;;;;;;;;;;;;;;8.54;100.00;92926.41;5070993;28;19928;-81
2021/05/21 03:20:45;;;;;;;;;;;;;;;8.64;100.00;92932.84;5070747;28;19928;-82
2021/05/21 03:23:11;;;;;;;;;;;;;;;8.58;100.00;92936.22;5071111;28;19970;-81
2021/05/21 03:25:40;;;;;;;;;;;;;;;8.68;100.00;92937.38;5070703;28;19924;-82
2021/05/21 03:28:06;;;;;;;;;;;;;;;8.62;100.00;92945.06;5070444;28;19928;-81
2021/05/21 03:30:33;;;;;;;;;;;;;;;8.61;100.00;92943.50;5070540;28;20430;-82
2021/05/21 03:32:59;;;;;;;;;;;;;;;8.22;100.00;92951.88;5070835;28;19929;-82
2021/05/21 03:35:25;;;;;;;;;;;;;;;8.23;100.00;92953.44;5070685;28;20014;-83
2021/05/21 03:37:52;;;;;;;;;;;;;;;8.18;100.00;92950.69;5070492;28;19931;-83
2021/05/21 03:40:18;;;;;;;;;;;;;;;8.06;100.00;92945.41;5070558;28;19931;-84
2021/05/21 03:42:44;;;;;;;;;;;;;;;7.98;100.00;92949.00;5070288;28;20327;-82
2021/05/21 03:45:11;;;;;;;;;;;;;;;8.23;100.00;92950.09;5070436;28;19928;-82
2021/05/21 03:47:37;;;;;;;;;;;;;;;8.16;100.00;92943.22;5070377;28;19925;-82
2021/05/21 03:50:04;;;;;;;;;;;;;;;8.29;100.00;92941.63;5070506;28;19948;-81
2021/05/21 03:52:30;;;;;;;;;;;;;;;8.45;100.00;92942.16;5070335;28;19924;-82
2021/05/21 03:54:57;;;;;;;;;;;;;;;8.57;100.00;92948.25;5070589;28;19925;-82
2021/05/21 03:57:23;;;;;;;;;;;;;;;8.45;100.00;92955.75;5070454;28;19931;-82
2021/05/21 03:59:49;;;;;;;;;;;;;;;8.44;100.00;92961.84;5070133;28;19925;-81
2021/05/21 04:02:15;;;;;;;;;;;;;;;8.45;100.00;92963.41;5069975;28;19929;-82
2021/05/21 04:04:41;;;;;;;;;;;;;;;8.37;100.00;92972.09;5069917;28;19924;-82
2021/05/21 04:07:07;;;;;;;;;;;;;;;8.22;100.00;92966.44;5069985;28;19932;-81
2021/05/21 04:09:33;;;;;;;;;;;;;;;8.47;100.00;92974.22;5069793;28;19993;-82
2021/05/21 04:14:44;;;;;;;;;;;;;;;8.24;100.00;92975.47;5069867;28;19947;-82
2021/05/21 04:17:10;;;;;;;;;;;;;;;8.37;100.00;92979.78;5070176;28;19928;-81
2021/05/21 04:19:36;;;;;;;;;;;;;;;8.51;100.00;92979.72;5069764;28;19925;-82
2021/05/21 04:22:03;;;;;;;;;;;;;;;8.60;100.00;92981.13;5069814;28;19924;-82
2021/05/21 04:24:29;;;;;;;;;;;;;;;8.45;100.00;92988.22;5070131;28;19932;-81
2021/05/21 04:26:55;;;;;;;;;;;;;;;8.40;100.00;92983.72;5069951;28;19936;-82
2021/05/21 04:29:22;;;;;;;;;;;;;;;8.42;100.00;92982.53;5069999;28;19924;-82
2021/05/21 04:31:48;;;;;;;;;;;;;;;8.18;100.00;92986.53;5069764;28;19985;-81
2021/05/21 04:34:14;;;;;;;;;;;;;;;8.39;100.00;92982.16;5069911;28;19925;-82
2021/05/21 04:36:40;;;;;;;;;;;;;;;8.40;100.00;92989.63;5069865;28;19924;-82
2021/05/21 04:39:06;;;;;;;;;;;;;;;8.45;100.00;92983.91;5069723;28;19929;-82
2021/05/21 04:41:32;;;;;;;;;;;;;;;8.44;100.00;92992.56;5069636;28;19924;-82
2021/05/21 04:43:58;;;;;;;;;;;;;;;8.58;100.00;92983.09;5069789;28;19925;-81
2021/05/21 04:46:25;;;;;;;;;;;;;;;8.58;100.00;92988.22;5069436;28;19928;-81
2021/05/21 04:48:51;;;;;;;;;;;;;;;8.66;100.00;92987.97;5069513;28;19924;-81
2021/05/21 04:51:17;;;;;;;;;;;;;;;8.49;100.00;92995.31;5069700;28;19925;-82
2021/05/21 04:53:43;;;;;;;;;;;;;;;8.60;100.00;93001.59;5069488;28;20303;-80
2021/05/21 04:56:10;;;;;;;;;;;;;;;8.64;100.00;93004.53;5069407;28;19924;-81
2021/05/21 04:58:36;;;;;;;;;;;;;;;8.63;100.00;93008.09;5069554;28;19928;-81
2021/05/21 05:01:02;;;;;;;;;;;;;;;8.70;100.00;93016.53;5044696;28;19929;-81
2021/05/21 05:03:30;;;;;;;;;;;;;;;8.65;100.00;93017.16;5040741;28;19932;-82
2021/05/21 05:05:56;;;;;;;;;;;;;;;8.69;100.00;93020.09;5049283;28;19924;-81
2021/05/21 05:08:22;;;;;;;;;;;;;;;8.76;100.00;93022.63;5049464;28;19995;-82
2021/05/21 05:10:49;;;;;;;;;;;;;;;8.79;100.00;93017.09;5049397;28;19928;-83
2021/05/21 05:13:15;;;;;;;;;;;;;;;8.76;100.00;93020.88;5049406;28;19925;-81
2021/05/21 05:15:41;;;;;;;;;;;;;;;8.79;100.00;93029.88;5049465;28;19970;-82
2021/05/21 05:18:07;;;;;;;;;;;;;;;8.89;100.00;93029.47;5049040;28;19936;-82
2021/05/21 05:20:34;;;;;;;;;;;;;;;8.76;100.00;93031.09;5051054;28;19948;-83
2021/05/21 05:23:00;;;;;;;;;;;;;;;8.82;100.00;93039.75;5052991;28;19928;-82
2021/05/21 05:25:27;;;;;;;;;;;;;;;8.75;100.00;93039.75;5053150;28;19956;-83
2021/05/21 05:27:53;;;;;;;;;;;;;;;8.82;100.00;93040.53;5053142;28;19974;-82
2021/05/21 05:30:20;;;;;;;;;;;;;;;8.78;100.00;93048.81;5053173;28;19928;-82
2021/05/21 05:32:46;;;;;;;;;;;;;;;8.85;100.00;93049.59;5052706;28;19929;-83
2021/05/21 05:35:12;;;;;;;;;;;;;;;8.98;100.00;93056.41;5053038;28;19929;-82
2021/05/21 05:37:39;;;;;;;;;;;;;;;8.95;100.00;93054.28;5052712;28;19925;-82
2021/05/21 05:40:07;;;;;;;;;;;;;;;9.08;100.00;93056.00;5052559;28;19935;-83
2021/05/21 05:42:33;;;;;;;;;;;;;;;9.32;100.00;93051.16;5052633;28;19925;-81
2021/05/21 05:44:59;;;;;;;;;;;;;;;9.59;100.00;93056.13;5052844;28;19928;-81
2021/05/21 05:47:25;;;;;;;;;;;;;;;9.82;100.00;93067.63;5052866;28;19925;-82
2021/05/21 05:49:51;;;;;;;;;;;;;;;9.67;100.00;93078.19;5053041;28;19925;-81
2021/05/21 05:52:17;;;;;;;;;;;;;;;9.72;100.00;93079.13;5052627;28;20038;-81
2021/05/21 05:54:44;;;;;;;;;;;;;;;9.63;100.00;93081.16;5052570;28;19924;-82
2021/05/21 05:57:10;;;;;;;;;;;;;;;9.67;100.00;93086.66;5052480;28;20351;-82
2021/05/21 05:59:38;;;;;;;;;;;;;;;9.82;100.00;93083.78;5052384;28;19955;-81
2021/05/21 06:02:04;;;;;;;;;;;;;;;9.88;100.00;93092.44;5052616;28;19928;-82
2021/05/21 06:04:30;;;;;;;;;;;;;;;9.93;100.00;93097.75;5052249;28;19925;-82
2021/05/21 06:06:56;;;;;;;;;;;;;;;9.82;100.00;93101.75;5052511;28;19932;-81
2021/05/21 06:09:22;;;;;;;;;;;;;;;9.66;100.00;93103.03;5052484;28;19929;-82
2021/05/21 06:11:49;;;;;;;;;;;;;;;9.96;100.00;93101.69;5052580;28;19928;-81
2021/05/21 06:14:15;;;;;;;;;;;;;;;9.84;100.00;93102.34;5052305;28;19929;-81
2021/05/21 06:16:43;;;;;;;;;;;;;;;10.06;100.00;93101.19;5052101;28;20433;-79
2021/05/21 06:19:09;;;;;;;;;;;;;;;10.26;100.00;93098.47;5052103;28;19979;-79
2021/05/21 06:21:35;;;;;;;;;;;;;;;10.26;100.00;93099.28;5052036;28;19925;-78
2021/05/21 06:24:01;;;;;;;;;;;;;;;10.18;100.00;93098.75;5052155;28;20419;-78
2021/05/21 06:26:33;;;;;;;;;;;;;;;10.42;100.00;93089.47;5051747;28;19936;-78
2021/05/21 06:29:00;;;;;;;;;;;;;;;10.51;100.00;93097.72;5052006;28;19984;-79
2021/05/21 06:31:26;;;;;;;;;;;;;;;10.42;100.00;93100.50;5051263;28;20467;-79
2021/05/21 06:33:52;;;;;;;;;;;;;;;10.39;100.00;93098.38;5052682;28;19932;-80
2021/05/21 06:36:18;;;;;;;;;;;;;;;10.03;100.00;93102.41;5055162;28;20422;-80
2021/05/21 06:38:44;;;;;;;;;;;;;;;10.05;100.00;93108.13;5053775;28;20418;-80
2021/05/21 06:41:10;;;;;;;;;;;;;;;10.06;100.00;93109.69;5051573;28;19933;-80
2021/05/21 06:43:37;;;;;;;;;;;;;;;10.12;100.00;93103.72;5051817;28;19928;-80
2021/05/21 06:46:04;;;;;;;;;;;;;;;10.05;100.00;93108.13;5051833;28;19986;-79
2021/05/21 06:48:32;;;;;;;;;;;;;;;10.16;100.00;93106.66;5051365;28;19933;-81
2021/05/21 06:50:58;;;;;;;;;;;;;;;10.38;100.00;93096.78;5051714;28;19929;-81
2021/05/21 06:53:24;;;;;;;;;;;;;;;10.48;100.00;93100.69;5051652;28;20277;-82
2021/05/21 06:55:50;;;;;;;;;;;;;;;10.47;100.00;93109.41;5050970;28;19925;-81
2021/05/21 06:58:18;;;;;;;;;;;;;;;10.53;100.00;93109.34;5051311;28;20403;-80
2021/05/21 07:00:54;;;;;;;;;;;;;;;10.56;100.00;93121.00;5051386;28;19929;-80
2021/05/21 07:03:21;;;;;;;;;;;;;;;10.55;100.00;93121.97;5047894;28;19925;-80
2021/05/21 07:05:47;;;;;;;;;;;;;;;10.47;100.00;93135.88;5049716;28;20408;-81
2021/05/21 07:08:14;;;;;;;;;;;;;;;10.28;100.00;93135.00;5051287;28;20376;-80
2021/05/21 07:10:40;;;;;;;;;;;;;;;10.33;100.00;93142.88;5051234;28;20475;-80
2021/05/21 07:13:07;;;;;;;;;;;;;;;10.45;100.00;93139.66;5051309;28;20370;-79
2021/05/21 07:15:33;;;;;;;;;;;;;;;10.49;100.00;93140.78;5050822;28;20407;-80
2021/05/21 07:17:59;;;;;;;;;;;;;;;10.40;100.00;93156.44;5050228;28;19936;-81
2021/05/21 07:20:26;;;;;;;;;;;;;;;10.05;100.00;93145.84;5050702;28;19925;-82
2021/05/21 07:22:52;;;;;;;;;;;;;;;10.19;100.00;93152.47;5050709;28;19929;-80
2021/05/21 07:25:20;;;;;;;;;;;;;;;10.25;100.00;93159.31;5050594;28;19928;-79
2021/05/21 07:27:47;;;;;;;;;;;;;;;10.13;100.00;93148.13;5050317;28;19929;-80
2021/05/21 07:30:13;;;;;;;;;;;;;;;9.80;100.00;93155.06;5051012;28;19925;-80
2021/05/21 07:32:39;;;;;;;;;;;;;;;9.47;100.00;93166.25;5050654;28;19930;-79
2021/05/21 07:35:06;;;;;;;;;;;;;;;9.25;100.00;93170.88;5050476;28;19932;-80
2021/05/21 07:37:33;;;;;;;;;;;;;;;9.31;100.00;93175.97;5050241;28;20015;-82
2021/05/21 07:39:59;;;;;;;;;;;;;;;9.21;100.00;93176.38;5050581;28;19925;-82
2021/05/21 07:42:25;;;;;;;;;;;;;;;9.34;100.00;93187.59;5049874;28;20390;-80
2021/05/21 07:44:51;;;;;;;;;;;;;;;9.43;100.00;93178.69;5050367;28;19935;-79
2021/05/21 07:47:17;;;;;;;;;;;;;;;9.52;100.00;93178.44;5050251;28;19931;-79
2021/05/21 07:49:43;;;;;;;;;;;;;;;9.84;100.00;93181.06;5050476;28;19925;-79
2021/05/21 07:52:09;;;;;;;;;;;;;;;10.01;100.00;93189.09;5030673;28;20324;-80
2021/05/21 07:54:36;;;;;;;;;;;;;;;10.42;100.00;93192.19;5030306;28;20327;-81
2021/05/21 07:57:02;;;;;;;;;;;;;;;10.60;100.00;93193.28;5030178;28;19929;-80
2021/05/21 07:59:28;;;;;;;;;;;;;;;10.73;100.00;93187.25;5029906;28;19978;-82
2021/05/21 08:01:55;;;;;;;;;;;;;;;11.04;100.00;93193.28;5030013;28;19932;-82
2021/05/21 08:04:21;;;;;;;;;;;;;;;11.11;100.00;93196.56;5030224;28;19933;-83
2021/05/21 08:06:47;;;;;;;;;;;;;;;11.10;100.00;93195.00;5029815;28;19929;-82
2021/05/21 08:09:13;;;;;;;;;;;;;;;11.21;100.00;93201.22;5036230;28;19932;-82
2021/05/21 08:11:40;;;;;;;;;;;;;;;11.30;100.00;93201.72;5049477;28;19924;-83
2021/05/21 08:14:08;;;;;;;;;;;;;;;11.20;100.00;93200.44;5049925;28;19929;-81
2021/05/21 08:16:34;;;;;;;;;;;;;;;11.26;100.00;93205.72;5049580;28;19971;-82
2021/05/21 08:19:00;;;;;;;;;;;;;;;11.32;100.00;93207.44;5049890;28;19925;-81
2021/05/21 08:21:26;;;;;;;;;;;;;;;11.12;100.00;93211.00;5049796;28;19933;-81
2021/05/21 08:23:52;;;;;;;;;;;;;;;11.17;100.00;93213.72;5049561;28;19936;-82
2021/05/21 08:26:22;;;;;;;;;;;;;;;11.38;100.00;93223.81;5049744;28;19925;-82
2021/05/21 08:28:49;;;;;;;;;;;;;;;11.61;100.00;93218.00;5049685;28;19929;-81
2021/05/21 08:31:15;;;;;;;;;;;;;;;11.68;100.00;93226.44;5049465;28;19932;-83
2021/05/21 08:33:43;;;;;;;;;;;;;;;11.55;100.00;93229.97;5049460;28;19936;-81
2021/05/21 08:36:10;;;;;;;;;;;;;;;11.41;100.00;93231.88;5049584;28;19929;-80
2021/05/21 08:38:37;;;;;;;;;;;;;;;11.77;100.00;93229.53;5049512;28;19925;-81
2021/05/21 08:41:04;;;;;;;;;;;;;;;11.98;100.00;93225.69;5049610;28;19928;-81
2021/05/21 08:43:30;;;;;;;;;;;;;;;11.98;100.00;93232.63;5049629;28;19925;-81
2021/05/21 08:45:57;;;;;;;;;;;;;;;11.98;100.00;93230.84;5049620;28;19928;-81
2021/05/21 08:48:24;;;;;;;;;;;;;;;12.33;100.00;93233.78;5049254;28;19935;-81
2021/05/21 08:50:50;;;;;;;;;;;;;;;12.32;100.00;93235.59;5049573;28;20380;-80
2021/05/21 08:53:16;;;;;;;;;;;;;;;12.63;100.00;93238.13;5049215;28;19951;-80
2021/05/21 08:55:42;;;;;;;;;;;;;;;12.47;100.00;93245.47;5049514;28;19931;-85
2021/05/21 08:58:10;;;;;;;;;;;;;;;12.16;100.00;93242.91;5051437;28;19990;-81
2021/05/21 09:00:36;;;;;;;;;;;;;;;12.18;100.00;93244.50;5053057;28;19984;-82
2021/05/21 09:03:16;;;;;;;;;;;;;;;12.03;100.00;93241.28;5053326;28;19925;-82
2021/05/21 09:05:59;;;;;;;;;;;;;;;11.76;100.00;93246.72;5053244;28;19924;-80
2021/05/21 09:08:32;;;;;;;;;;;;;;;11.82;100.00;93247.66;5053674;28;20288;-80
2021/05/21 09:10:59;;;;;;;;;;;;;;;11.93;100.00;93246.16;5053397;28;19947;-82
2021/05/21 09:13:32;;;;;;;;;;;;;;;12.05;100.00;93251.38;5053391;28;19974;-80
2021/05/21 09:16:16;;;;;;;;;;;;;;;12.06;100.00;93247.00;5053017;28;19928;-82
2021/05/21 09:18:57;;;;;;;;;;;;;;;12.11;100.00;93265.16;5053107;28;20287;-80
2021/05/21 09:21:24;;;;;;;;;;;;;;;12.36;100.00;93259.13;5053250;28;19925;-81
2021/05/21 09:24:01;;;;;;;;;;;;;;;12.58;99.51;93259.38;5052997;28;19929;-81
2021/05/21 09:26:38;;;;;;;;;;;;;;;12.35;97.90;93268.63;5052658;28;19929;-84
2021/05/21 09:29:04;;;;;;;;;;;;;;;12.06;99.28;93270.97;5053119;28;20352;-82
2021/05/21 09:31:30;;;;;;;;;;;;;;;12.37;99.98;93269.19;5052927;28;19935;-81
2021/05/21 09:33:59;;;;;;;;;;;;;;;12.59;96.80;93271.25;5053145;28;19925;-80
2021/05/21 09:36:27;;;;;;;;;;;;;;;12.52;96.43;93268.00;5052893;28;19929;-80
2021/05/21 09:38:54;;;;;;;;;;;;;;;12.52;96.47;93260.28;5052839;28;19925;-81
2021/05/21 09:41:21;;;;;;;;;;;;;;;12.35;95.29;93278.16;5052607;28;19924;-81
2021/05/21 09:43:51;;;;;;;;;;;;;;;12.13;96.84;93270.91;5052705;28;19928;-82
2021/05/21 09:46:17;;;;;;;;;;;;;;;12.14;98.94;93272.47;5052456;28;20014;-81
2021/05/21 09:48:43;;;;;;;;;;;;;;;12.06;97.08;93276.13;5052347;28;20403;-81
2021/05/21 09:51:09;;;;;;;;;;;;;;;12.29;97.41;93284.94;5052172;28;19928;-82
2021/05/21 09:53:37;;;;;;;;;;;;;;;12.34;100.00;93269.63;5052767;28;20341;-81
2021/05/21 09:56:04;;;;;;;;;;;;;;;12.41;99.60;93279.84;5052319;28;19987;-80
2021/05/21 09:58:32;;;;;;;;;;;;;;;12.64;96.82;93291.25;5052350;28;19930;-81
2021/05/21 10:01:19;;;;;;;;;;;;;;;12.35;96.16;93303.91;5052428;28;20295;-81
2021/05/21 10:03:46;;;;;;;;;;;;;;;12.54;93.75;93305.44;5047150;28;19929;-81
2021/05/21 10:06:12;;;;;;;;;;;;;;;12.89;94.31;93303.16;5051561;28;20007;-80
2021/05/21 10:08:40;;;;;;;;;;;;;;;12.79;92.47;93312.25;5052305;28;19936;-80
2021/05/21 10:11:06;;;;;;;;;;;;;;;12.92;93.33;93316.38;5052424;28;20456;-80
2021/05/21 10:13:32;;;;;;;;;;;;;;;12.99;93.07;93315.50;5045249;28;20300;-81
2021/05/21 10:15:59;;;;;;;;;;;;;;;13.35;92.80;93311.97;5033038;28;19925;-80
2021/05/21 10:18:26;;;;;;;;;;;;;;;13.45;90.66;93308.84;5035453;28;19925;-80
2021/05/21 10:20:53;;;;;;;;;;;;;;;13.55;90.22;93312.66;5051471;28;19932;-80
2021/05/21 10:23:20;;;;;;;;;;;;;;;13.58;90.38;93318.19;5033243;28;19939;-82
2021/05/21 10:25:49;;;;;;;;;;;;;;;13.43;90.91;93317.81;5049364;28;19936;-81
2021/05/21 10:28:17;;;;;;;;;;;;;;;13.23;88.53;93330.03;5050623;28;20388;-81
2021/05/21 10:30:44;;;;;;;;;;;;;;;13.21;90.75;93326.09;5051944;28;20019;-81
2021/05/21 10:33:13;;;;;;;;;;;;;;;12.53;90.99;93326.25;5051465;28;19939;-80
2021/05/21 10:35:40;;;;;;;;;;;;;;;12.35;91.99;93325.28;5051920;28;19924;-81
2021/05/21 10:38:19;;;;;;;;;;;;;;;12.27;93.24;93323.03;5051744;28;19954;-80
2021/05/21 10:40:45;;;;;;;;;;;;;;;12.59;93.69;93316.88;5051600;28;20316;-81
2021/05/21 10:43:15;;;;;;;;;;;;;;;12.80;93.22;93313.00;5051348;28;19925;-80
2021/05/21 10:45:52;;;;;;;;;;;;;;;12.80;91.76;93320.75;5051475;28;19955;-83
2021/05/21 10:48:25;;;;;;;;;;;;;;;12.90;90.31;93322.78;5051406;28;19928;-81
2021/05/21 10:51:06;;;;;;;;;;;;;;;13.03;90.25;93324.38;5051581;28;20356;-80
2021/05/21 10:53:32;;;;;;;;;;;;;;;13.29;91.20;93319.81;5051365;28;19925;-80
2021/05/21 10:55:58;;;;;;;;;;;;;;;13.15;88.90;93325.16;5051213;28;19932;-79
2021/05/21 10:58:30;;;;;;;;;;;;;;;13.40;90.85;93316.47;5051703;28;19929;-80
2021/05/21 11:01:16;;;;;;;;;;;;;;;13.25;88.66;93326.44;5051398;28;20273;-81
2021/05/21 11:04:01;;;;;;;;;;;;;;;13.43;87.95;93328.91;5051457;28;19925;-81
2021/05/21 11:06:29;;;;;;;;;;;;;;;13.02;88.95;93330.53;5051824;28;19983;-80
2021/05/21 11:08:58;;;;;;;;;;;;;;;13.10;89.03;93341.31;5051286;28;19935;-81
2021/05/21 11:11:41;;;;;;;;;;;;;;;13.10;88.40;93340.53;5054129;28;19929;-80
2021/05/21 11:14:19;;;;;;;;;;;;;;;13.21;87.52;93336.41;5053543;28;19974;-81
2021/05/21 11:16:51;;;;;;;;;;;;;;;13.23;88.51;93330.03;5051364;28;19935;-80
2021/05/21 11:19:19;;;;;;;;;;;;;;;13.31;86.91;93338.44;5049904;28;20373;-81
2021/05/21 11:21:46;;;;;;;;;;;;;;;13.34;88.25;93338.75;5050784;28;19926;-80
2021/05/21 11:24:12;;;;;;;;;;;;;;;13.75;87.32;93332.97;5050728;28;20027;-80
2021/05/21 11:26:41;;;;;;;;;;;;;;;14.45;85.83;93340.81;5050936;28;19928;-81
2021/05/21 11:29:08;;;;;;;;;;;;;;;14.23;84.50;93336.25;5046300;28;19935;-80
2021/05/21 11:31:36;;;;;;;;;;;;;;;14.29;83.30;93337.13;5030622;28;19925;-80
2021/05/21 11:34:04;;;;;;;;;;;;;;;14.50;80.89;93345.28;5030989;28;20018;-80
2021/05/21 11:36:34;;;;;;;;;;;;;;;14.32;79.93;93343.63;5030720;28;19935;-81
2021/05/21 11:39:00;;;;;;;;;;;;;;;14.25;78.51;93341.97;5030709;28;19967;-81
2021/05/21 11:41:30;;;;;;;;;;;;;;;14.46;79.17;93341.56;5030668;28;20330;-81
2021/05/21 11:44:00;;;;;;;;;;;;;;;14.36;79.76;93337.81;5030724;28;20015;-81
2021/05/21 11:49:12;;;;;;;;;;;;;;;14.71;78.25;93336.09;5030338;28;19932;-82
2021/05/21 11:51:38;;;;;;;;;;;;;;;14.90;79.44;93341.09;5034969;28;19925;-82
2021/05/21 11:54:05;;;;;;;;;;;;;;;15.02;83.54;93336.63;5050326;28;19925;-82
2021/05/21 11:56:32;;;;;;;;;;;;;;;15.12;85.05;93338.59;5050285;28;19924;-82
2021/05/21 11:58:59;;;;;;;;;;;;;;;14.92;90.93;93344.22;5050348;28;19924;-82
2021/05/21 12:01:25;;;;;;;;;;;;;;;14.81;96.04;93338.88;5050081;28;19925;-82
2021/05/21 12:03:52;;;;;;;;;;;;;;;14.82;84.67;93343.03;5049991;28;19925;-81
2021/05/21 12:06:18;;;;;;;;;;;;;;;15.22;91.44;93332.78;5049939;28;19925;-81
2021/05/21 12:08:46;;;;;;;;;;;;;;;15.47;84.58;93331.63;5049932;28;20411;-81
2021/05/21 12:11:12;;;;;;;;;;;;;;;16.07;85.80;93326.75;5050107;28;19925;-81
2021/05/21 12:13:38;;;;;;;;;;;;;;;16.50;81.38;93328.78;5049948;28;19924;-83
2021/05/21 12:16:11;;;;;;;;;;;;;;;17.02;74.93;93339.63;5049938;28;19935;-82
2021/05/21 12:18:37;;;;;;;;;;;;;;;17.49;75.31;93346.00;5049631;28;19925;-82
2021/05/21 12:21:05;;;;;;;;;;;;;;;17.72;74.98;93339.66;5049737;28;19936;-81
2021/05/21 12:23:33;;;;;;;;;;;;;;;17.95;74.59;93335.09;5049662;28;19971;-82
2021/05/21 12:25:59;;;;;;;;;;;;;;;18.19;75.52;93323.56;5049908;28;19971;-82
2021/05/21 12:28:25;;;;;;;;;;;;;;;18.25;74.74;93328.53;5049341;28;19929;-82
2021/05/21 12:30:51;;;;;;;;;;;;;;;18.00;72.40;93336.94;5049604;28;19948;-84
2021/05/21 12:33:18;;;;;;;;;;;;;;;17.97;72.29;93337.47;5049819;28;19925;-85
2021/05/21 12:35:44;;;;;;;;;;;;;;;18.18;74.20;93322.75;5049415;28;20395;-83
2021/05/21 12:38:12;;;;;;;;;;;;;;;18.07;70.64;93334.94;5049510;28;19925;-82
2021/05/21 12:40:49;;;;;;;;;;;;;;;18.35;73.25;93338.19;5049053;28;20304;-83
2021/05/21 12:43:16;;;;;;;;;;;;;;;18.49;70.50;93337.69;5049818;28;19925;-82
2021/05/21 12:45:52;;;;;;;;;;;;;;;18.75;67.26;93338.53;5049748;28;19929;-82
2021/05/21 12:48:19;;;;;;;;;;;;;;;18.77;68.23;93341.69;5049330;28;19971;-82
2021/05/21 12:50:45;;;;;;;;;;;;;;;18.82;66.41;93341.69;5049509;28;19974;-82